Time;durP1;ratioP1;P1;durP2;ratioP2;P2;SDS_P1;SDS_P2;PMS_P1;PMS_P2;Temp;Humidity;BMP_temperature;BMP_pressure;BME280_temperature;BME280_humidity;BME280_pressure;Samples;Min_cycle;Max_cycle;Signal;HPM_P1;HPM_P2
2022/10/05 04:00:19;;;;;;;4.70;4.17;;;9.10;99.90;;;;;;6023233;23;20461;31
2022/10/05 04:02:50;;;;;;;5.80;4.37;;;9.10;99.90;;;;;;4909769;29;20707;-76
2022/10/05 04:05:21;;;;;;;4.93;4.40;;;9.10;99.90;;;;;;4910596;29;20455;-76
2022/10/05 04:07:53;;;;;;;6.40;4.90;;;9.10;99.90;;;;;;4910707;29;20501;-76
2022/10/05 04:10:25;;;;;;;5.60;4.23;;;9.00;99.90;;;;;;4911352;29;20439;-76
2022/10/05 04:12:58;;;;;;;10.50;4.77;;;9.00;99.90;;;;;;4911651;29;20444;-76
2022/10/05 04:15:33;;;;;;;4.47;3.97;;;9.00;99.90;;;;;;4910315;29;20475;-77
2022/10/05 04:18:05;;;;;;;7.40;4.80;;;9.10;99.90;;;;;;4911348;29;20447;-76
2022/10/05 04:20:38;;;;;;;6.33;4.47;;;9.00;99.90;;;;;;4911189;29;20479;-76
2022/10/05 04:23:17;;;;;;;4.73;4.10;;;9.00;99.90;;;;;;4910718;29;20542;-76
2022/10/05 04:25:47;;;;;;;8.60;5.07;;;9.00;99.90;;;;;;4910192;29;20538;-76
2022/10/05 04:28:21;;;;;;;5.27;4.23;;;9.00;99.90;;;;;;4910856;29;20507;-76
2022/10/05 04:30:51;;;;;;;7.00;5.13;;;9.10;99.90;;;;;;4910569;29;20487;-69
2022/10/05 04:33:18;;;;;;;9.50;5.93;;;9.00;99.90;;;;;;4911025;29;20451;-69
2022/10/05 04:36:00;;;;;;;6.37;5.60;;;9.00;99.90;;;;;;4909906;29;20471;-68
2022/10/05 04:38:37;;;;;;;6.90;5.10;;;8.90;99.90;;;;;;4910848;29;20456;-69
2022/10/05 04:41:16;;;;;;;7.50;5.30;;;8.90;99.90;;;;;;4910097;29;20586;-69
2022/10/05 04:43:54;;;;;;;8.87;5.30;;;8.80;99.90;;;;;;4910757;29;20578;-69
2022/10/05 04:46:37;;;;;;;7.40;5.10;;;8.80;99.90;;;;;;4911676;29;20552;-83
2022/10/05 04:49:22;;;;;;;9.18;6.60;;;8.80;99.90;;;;;;4912736;29;20465;-82
2022/10/05 04:51:54;;;;;;;11.20;6.63;;;9.10;99.90;;;;;;4914852;29;20238;-85
2022/10/05 04:54:30;;;;;;;10.40;6.77;;;9.10;99.90;;;;;;4919965;29;20532;-84
2022/10/05 04:57:01;;;;;;;10.60;6.50;;;9.10;99.90;;;;;;4925149;29;20550;-86
2022/10/05 04:59:59;;;;;;;6.67;5.57;;;9.00;99.90;;;;;;4923866;29;20455;-86
2022/10/05 05:02:43;;;;;;;6.93;5.77;;;8.90;99.90;;;;;;4917052;29;20479;-85
2022/10/05 05:05:30;;;;;;;7.50;5.13;;;8.90;99.90;;;;;;4913293;29;20452;-85
2022/10/05 05:08:10;;;;;;;5.40;4.90;;;8.80;99.90;;;;;;4922089;29;20494;-86
2022/10/05 05:10:57;;;;;;;5.87;4.93;;;8.70;99.90;;;;;;4923925;29;20495;-85
2022/10/05 05:13:45;;;;;;;5.70;4.50;;;8.70;99.90;;;;;;4922797;29;20451;-85
2022/10/05 05:16:19;;;;;;;9.93;5.37;;;8.70;99.90;;;;;;4919016;29;20462;-86
2022/10/05 05:18:57;;;;;;;5.00;4.10;;;8.70;99.90;;;;;;4918732;29;20475;-85
2022/10/05 05:21:36;;;;;;;5.63;4.73;;;8.60;99.90;;;;;;4925215;29;20491;-85
2022/10/05 05:24:10;;;;;;;5.40;4.60;;;8.60;99.90;;;;;;4917398;29;20526;-85
2022/10/05 05:27:00;;;;;;;5.57;4.70;;;8.70;99.90;;;;;;4919336;29;20451;-85
2022/10/05 05:29:42;;;;;;;7.37;4.00;;;8.60;99.90;;;;;;4918612;29;20502;-85
2022/10/05 05:32:23;;;;;;;5.20;4.40;;;8.60;99.90;;;;;;4918940;29;20586;-86
2022/10/05 05:35:06;;;;;;;4.30;3.90;;;8.60;99.90;;;;;;4914096;29;20459;-83
2022/10/05 05:37:39;;;;;;;4.57;4.07;;;8.70;99.90;;;;;;4914066;29;20450;-83
2022/10/05 05:40:15;;;;;;;5.67;4.30;;;8.60;99.90;;;;;;4913896;29;21454;-84
2022/10/05 05:42:53;;;;;;;5.67;4.70;;;8.60;99.90;;;;;;4913396;29;20530;-82
2022/10/05 05:45:26;;;;;;;5.53;4.37;;;8.60;99.90;;;;;;4914323;29;20450;-85
2022/10/05 05:47:55;;;;;;;6.37;4.70;;;8.60;99.90;;;;;;4914239;29;20467;-85
2022/10/05 05:50:34;;;;;;;5.30;4.80;;;8.50;99.90;;;;;;4914883;29;20463;-86
2022/10/05 05:53:07;;;;;;;8.57;5.10;;;8.50;99.90;;;;;;4915434;29;20427;-85
2022/10/05 05:55:39;;;;;;;5.67;4.93;;;8.50;99.90;;;;;;4912583;29;20439;-85
2022/10/05 05:58:14;;;;;;;9.10;6.57;;;8.50;99.90;;;;;;4913910;29;20443;-85
2022/10/05 06:00:45;;;;;;;10.03;7.20;;;8.50;99.90;;;;;;4913854;29;20908;-85
2022/10/05 06:03:20;;;;;;;6.40;5.10;;;8.50;99.90;;;;;;4913642;29;20443;-81
2022/10/05 06:05:52;;;;;;;5.90;5.17;;;8.50;99.90;;;;;;4913527;29;20931;-84
2022/10/05 06:08:28;;;;;;;7.60;5.97;;;8.50;99.90;;;;;;4913947;29;20499;-85
2022/10/05 06:10:59;;;;;;;9.50;5.40;;;8.50;99.90;;;;;;4914129;29;21017;-84
2022/10/05 06:13:34;;;;;;;6.20;4.93;;;8.50;99.90;;;;;;4913115;29;20467;-83
2022/10/05 06:16:09;;;;;;;6.07;5.27;;;8.60;99.90;;;;;;4912299;29;20428;-83
2022/10/05 06:18:39;;;;;;;7.10;5.10;;;8.50;99.90;;;;;;4912881;29;20462;-84
2022/10/05 06:21:15;;;;;;;6.30;5.47;;;8.60;99.90;;;;;;4912271;29;21449;-84
2022/10/05 06:23:49;;;;;;;5.90;5.30;;;8.60;99.90;;;;;;4914478;29;20462;-85
2022/10/05 06:26:44;;;;;;;7.33;6.00;;;8.70;99.90;;;;;;4917011;29;20436;-85
2022/10/05 06:29:18;;;;;;;6.87;5.70;;;8.60;99.90;;;;;;4917803;29;20570;-87
2022/10/05 06:32:02;;;;;;;8.00;5.90;;;8.60;99.90;;;;;;4916340;29;20496;-85
2022/10/05 06:34:48;;;;;;;10.37;6.07;;;8.60;99.90;;;;;;4917483;29;20482;-85
2022/10/05 06:37:28;;;;;;;7.07;5.70;;;8.60;99.90;;;;;;4916103;29;20460;-84
2022/10/05 06:40:11;;;;;;;13.03;5.70;;;8.60;99.90;;;;;;4914271;29;21293;-86
2022/10/05 06:42:56;;;;;;;5.40;4.90;;;8.70;99.90;;;;;;4913458;29;20497;-85
2022/10/05 06:45:32;;;;;;;7.73;5.73;;;8.70;99.90;;;;;;4912997;29;20443;-84
2022/10/05 06:48:09;;;;;;;6.23;4.77;;;8.70;99.90;;;;;;4918072;29;20842;-86
2022/10/05 06:50:39;;;;;;;6.20;5.33;;;8.80;99.90;;;;;;4918279;29;21006;-86
2022/10/05 06:53:28;;;;;;;8.73;5.47;;;8.70;99.90;;;;;;4924842;29;20505;-86
2022/10/05 06:55:59;;;;;;;5.90;4.73;;;8.80;99.90;;;;;;4930735;29;20546;-86
2022/10/05 06:58:54;;;;;;;8.63;5.23;;;8.80;99.90;;;;;;4934226;29;20446;-87
2022/10/05 07:01:34;;;;;;;6.43;5.23;;;8.80;99.90;;;;;;4925590;29;20546;-86
2022/10/05 07:04:15;;;;;;;5.53;4.90;;;8.80;99.90;;;;;;4927491;29;20514;-86
2022/10/05 07:06:46;;;;;;;6.73;5.27;;;8.80;99.90;;;;;;4932301;29;20465;-86
2022/10/05 07:09:26;;;;;;;7.07;5.80;;;8.80;99.90;;;;;;4934084;29;20565;-86
2022/10/05 07:12:06;;;;;;;6.43;5.07;;;8.90;99.90;;;;;;4933433;29;20478;-86
2022/10/05 07:14:48;;;;;;;7.60;6.13;;;8.90;99.90;;;;;;4931013;29;20462;-87
2022/10/05 07:17:27;;;;;;;6.20;5.40;;;9.00;99.90;;;;;;4931823;29;20586;-86
2022/10/05 07:20:03;;;;;;;7.77;5.77;;;9.00;99.90;;;;;;4935925;29;20438;-87
2022/10/05 07:22:43;;;;;;;8.80;6.10;;;9.00;99.90;;;;;;4938227;29;20541;-86
2022/10/05 07:25:15;;;;;;;6.53;5.30;;;9.10;99.90;;;;;;4932460;29;20965;-87
2022/10/05 07:27:48;;;;;;;6.43;5.00;;;9.10;99.90;;;;;;4936108;29;20553;-86
2022/10/05 07:30:15;;;;;;;6.67;5.30;;;9.20;99.90;;;;;;4926204;29;20554;-86
2022/10/05 07:32:51;;;;;;;6.07;5.03;;;9.20;99.90;;;;;;4927777;29;20510;-86
2022/10/05 07:38:16;;;;;;;7.57;5.20;;;9.40;99.90;;;;;;4926028;29;20496;-86
2022/10/05 07:40:52;;;;;;;6.57;5.30;;;9.40;99.90;;;;;;4938910;29;20495;-87
2022/10/05 07:43:28;;;;;;;6.60;5.70;;;9.50;99.90;;;;;;4956335;28;20427;-87
2022/10/05 07:46:01;;;;;;;10.23;7.40;;;9.50;99.90;;;;;;4953631;28;20451;-87
2022/10/05 07:48:35;;;;;;;11.10;5.63;;;9.60;99.90;;;;;;4948792;29;20597;-85
2022/10/05 07:51:12;;;;;;;9.33;7.17;;;9.70;99.90;;;;;;4954353;28;20503;-86
2022/10/05 07:53:43;;;;;;;8.17;7.23;;;9.80;99.90;;;;;;4952267;28;20443;-85
2022/10/05 07:56:19;;;;;;;9.33;6.67;;;9.90;99.90;;;;;;4929223;29;20470;-85
2022/10/05 07:58:48;;;;;;;7.10;6.37;;;10.00;99.90;;;;;;4926150;29;21773;-85
2022/10/05 08:01:22;;;;;;;8.47;6.93;;;10.10;99.90;;;;;;4934976;29;20490;-85
2022/10/05 08:03:53;;;;;;;9.13;6.90;;;10.20;99.90;;;;;;4934112;29;20483;-85
2022/10/05 08:06:39;;;;;;;19.30;7.90;;;10.40;99.90;;;;;;4937011;29;20435;-85
2022/10/05 08:09:15;;;;;;;10.03;7.40;;;10.40;99.90;;;;;;4922674;29;20491;-85
2022/10/05 08:11:54;;;;;;;12.50;8.30;;;10.60;99.90;;;;;;4895518;29;20488;-85
2022/10/05 08:14:27;;;;;;;9.37;7.20;;;10.70;99.90;;;;;;4926900;29;20461;-85
2022/10/05 08:16:57;;;;;;;8.10;7.30;;;10.80;99.90;;;;;;4925517;29;20456;-86
2022/10/05 08:19:33;;;;;;;11.43;8.10;;;10.90;99.90;;;;;;4926998;29;20943;-85
2022/10/05 08:22:05;;;;;;;11.97;7.87;;;11.10;99.90;;;;;;4932794;29;20498;-85
2022/10/05 08:24:41;;;;;;;8.67;6.80;;;11.20;99.90;;;;;;4908679;29;20464;-84
2022/10/05 08:27:17;;;;;;;7.40;6.60;;;11.40;99.90;;;;;;4918467;29;20793;-84
2022/10/05 08:29:55;;;;;;;9.17;6.53;;;11.60;99.90;;;;;;4913761;29;20491;-85
2022/10/05 08:32:24;;;;;;;7.03;6.17;;;11.70;99.90;;;;;;4932008;29;20490;-84
2022/10/05 08:34:55;;;;;;;7.80;6.53;;;11.90;99.90;;;;;;4912814;29;20510;-84
2022/10/05 08:37:26;;;;;;;9.50;6.10;;;12.10;99.90;;;;;;4913379;29;20459;-84
2022/10/05 08:39:56;;;;;;;6.40;5.43;;;12.30;99.90;;;;;;4916918;29;20465;-84
2022/10/05 08:42:53;;;;;;;6.83;5.77;;;12.50;99.90;;;;;;4921463;29;20566;-84
2022/10/05 08:45:58;;;;;;;5.70;5.17;;;12.60;99.90;;;;;;4920757;29;20466;-83
2022/10/05 08:49:01;;;;;;;5.67;4.83;;;12.80;99.90;;;;;;4913419;29;20952;-83
2022/10/05 08:51:45;;;;;;;7.23;5.13;;;13.00;99.90;;;;;;4912592;29;20487;-85
2022/10/05 08:54:46;;;;;;;6.03;5.00;;;13.30;99.90;;;;;;4917958;29;20432;-84
2022/10/05 08:57:58;;;;;;;5.20;4.27;;;13.50;99.90;;;;;;4914345;29;21230;-85
2022/10/05 09:00:34;;;;;;;5.30;4.80;;;13.80;99.90;;;;;;4906830;29;20571;-69
2022/10/05 09:03:25;;;;;;;7.07;4.90;;;14.20;99.90;;;;;;4910337;29;20558;-70
2022/10/05 09:06:23;;;;;;;5.23;4.73;;;14.40;99.90;;;;;;4909547;29;20463;-68
2022/10/05 09:09:19;;;;;;;6.93;4.60;;;14.60;99.90;;;;;;4922218;29;20482;-82
2022/10/05 09:12:04;;;;;;;6.10;4.50;;;14.90;99.90;;;;;;4910995;29;20497;-82
2022/10/05 09:14:47;;;;;;;5.73;4.80;;;15.10;99.90;;;;;;4914945;29;20510;-81
2022/10/05 09:17:27;;;;;;;4.60;4.20;;;15.40;99.90;;;;;;4920193;29;20462;-82
2022/10/05 09:20:13;;;;;;;8.33;4.57;;;16.10;99.90;;;;;;4922941;29;20479;-82
2022/10/05 09:23:00;;;;;;;6.23;4.40;;;16.50;99.90;;;;;;4917037;29;20535;-82
2022/10/05 09:25:57;;;;;;;5.53;4.10;;;16.60;99.90;;;;;;4918633;29;20450;-83
2022/10/05 09:28:31;;;;;;;6.07;3.77;;;16.80;99.90;;;;;;4920879;29;20447;-81
2022/10/05 09:31:37;;;;;;;6.60;3.93;;;17.30;99.90;;;;;;4916372;29;20491;-82
2022/10/05 09:34:43;;;;;;;4.20;3.80;;;17.60;99.90;;;;;;4923397;29;20967;-82
2022/10/05 09:37:47;;;;;;;6.23;4.30;;;18.20;99.90;;;;;;4922732;29;20462;-82
2022/10/05 09:40:52;;;;;;;5.27;3.77;;;18.40;99.90;;;;;;4920123;29;20463;-84
2022/10/05 09:43:58;;;;;;;4.27;3.47;;;18.50;99.90;;;;;;4893393;29;20811;-82
2022/10/05 09:46:57;;;;;;;4.53;3.20;;;18.80;99.90;;;;;;4864908;29;20976;-83
2022/10/05 09:50:05;;;;;;;6.00;3.40;;;19.10;99.90;;;;;;4910863;29;20486;-82
2022/10/05 09:53:04;;;;;;;6.47;3.00;;;19.10;99.90;;;;;;4919794;29;20483;-82
2022/10/05 09:56:22;;;;;;;3.70;3.20;;;19.70;99.90;;;;;;4918364;29;21308;-84
2022/10/05 09:59:11;;;;;;;4.20;3.13;;;20.30;99.90;;;;;;4855413;29;20495;-83
2022/10/05 10:02:00;;;;;;;3.53;3.13;;;20.80;99.90;;;;;;4872178;29;20504;-83
2022/10/05 10:04:43;;;;;;;2.70;2.50;;;20.70;99.90;;;;;;4907554;29;20951;-84
2022/10/05 10:07:36;;;;;;;5.23;3.13;;;21.10;99.90;;;;;;4911962;29;20904;-84
2022/10/05 10:10:28;;;;;;;4.53;3.00;;;21.30;99.90;;;;;;4912219;29;20856;-85
2022/10/05 10:13:14;;;;;;;2.93;2.67;;;21.40;99.90;;;;;;4906255;29;20475;-84
2022/10/05 10:16:01;;;;;;;4.60;3.93;;;21.60;99.90;;;;;;4912048;29;20471;-84
2022/10/05 10:19:08;;;;;;;5.60;3.47;;;21.30;99.90;;;;;;4914649;29;20824;-84
2022/10/05 10:22:11;;;;;;;4.13;2.40;;;21.20;99.90;;;;;;4912475;29;20483;-84
2022/10/05 10:24:58;;;;;;;3.80;2.80;;;21.20;99.90;;;;;;4912247;29;20458;-84
2022/10/05 10:27:53;;;;;;;3.20;2.73;;;21.30;99.90;;;;;;4914434;29;20448;-84
2022/10/05 10:30:46;;;;;;;2.77;2.43;;;21.60;99.90;;;;;;4914164;29;20820;-83
2022/10/05 10:33:42;;;;;;;3.73;2.33;;;21.90;99.90;;;;;;4913582;29;20451;-83
2022/10/05 10:36:16;;;;;;;4.80;2.93;;;22.50;99.90;;;;;;4912448;29;20478;-82
2022/10/05 10:38:57;;;;;;;2.43;2.23;;;22.60;99.90;;;;;;4912890;29;20478;-82
2022/10/05 10:41:59;;;;;;;3.23;2.80;;;22.50;99.90;;;;;;4921684;29;20535;-83
2022/10/05 10:45:04;;;;;;;2.97;2.60;;;22.60;99.90;;;;;;4913862;29;20982;-82
2022/10/05 10:47:40;;;;;;;3.40;2.30;;;23.40;99.90;;;;;;4827974;29;20460;-82
2022/10/05 10:50:33;;;;;;;2.33;2.13;;;23.30;99.90;;;;;;4903779;29;21174;-82
2022/10/05 10:53:17;;;;;;;3.27;2.17;;;23.30;99.90;;;;;;4911127;29;20459;-82
2022/10/05 10:55:55;;;;;;;2.67;2.40;;;23.60;99.90;;;;;;4893844;29;20468;-82
2022/10/05 10:58:50;;;;;;;6.20;2.20;;;23.60;99.90;;;;;;4895170;29;20464;-83
2022/10/05 11:01:29;;;;;;;2.73;2.20;;;23.60;99.90;;;;;;4876093;29;20504;-82
2022/10/05 11:04:33;;;;;;;8.67;2.40;;;24.30;99.90;;;;;;4893928;29;21290;-82
2022/10/05 11:07:33;;;;;;;2.50;2.27;;;24.40;99.90;;;;;;4894975;29;20447;-82
2022/10/05 11:10:22;;;;;;;2.50;2.10;;;24.40;99.90;;;;;;4877942;29;20496;-82
2022/10/05 11:13:20;;;;;;;5.90;2.20;;;24.40;99.90;;;;;;4895627;29;20463;-82
2022/10/05 11:16:25;;;;;;;3.30;2.23;;;24.40;99.90;;;;;;4894475;29;20444;-83
2022/10/05 11:19:21;;;;;;;2.17;1.97;;;24.90;99.90;;;;;;4877039;29;20480;-83
2022/10/05 11:22:05;;;;;;;2.20;2.00;;;24.80;99.90;;;;;;4893851;29;20484;-83
2022/10/05 11:24:49;;;;;;;3.40;2.03;;;24.60;99.90;;;;;;4893199;29;20476;-82
2022/10/05 11:27:43;;;;;;;2.93;1.80;;;24.60;99.90;;;;;;4895050;29;20467;-82
2022/10/05 11:30:46;;;;;;;5.00;2.10;;;24.70;99.90;;;;;;4895322;29;20547;-82
2022/10/05 11:33:36;;;;;;;3.30;1.90;;;24.80;99.90;;;;;;4875046;29;20491;-83
2022/10/05 11:36:39;;;;;;;2.00;1.80;;;24.90;99.90;;;;;;4897400;29;20455;-83
2022/10/05 11:39:35;;;;;;;3.07;2.13;;;25.00;99.90;;;;;;4896109;29;20476;-83
2022/10/05 11:42:32;;;;;;;3.70;2.00;;;25.50;99.90;;;;;;4895611;29;20483;-82
2022/10/05 11:45:22;;;;;;;2.40;2.03;;;25.60;99.90;;;;;;4891372;29;20519;-81
2022/10/05 11:48:07;;;;;;;5.07;2.03;;;25.60;99.90;;;;;;4896472;29;20451;-81
2022/10/05 11:50:42;;;;;;;2.23;2.03;;;25.60;99.90;;;;;;4896124;29;20514;-82
2022/10/05 11:53:17;;;;;;;2.30;1.90;;;25.80;99.90;;;;;;4896295;29;20444;-82
2022/10/05 11:56:04;;;;;;;2.40;2.20;;;25.80;99.90;;;;;;4896251;29;20448;-82
2022/10/05 11:58:35;;;;;;;1.90;1.70;;;25.90;99.90;;;;;;4897607;29;20463;-82
2022/10/05 12:01:12;;;;;;;3.40;2.00;;;26.60;99.90;;;;;;4897509;29;20487;-83
2022/10/05 12:03:49;;;;;;;4.03;2.00;;;26.60;99.90;;;;;;4898260;29;20479;-82
2022/10/05 12:06:33;;;;;;;3.70;2.13;;;26.50;99.90;;;;;;4898594;29;20432;-82
2022/10/05 12:09:23;;;;;;;1.87;1.53;;;26.50;99.90;;;;;;4898197;29;20499;-82
2022/10/05 12:12:09;;;;;;;3.53;2.00;;;26.60;99.90;;;;;;4897936;29;20491;-82
2022/10/05 12:14:49;;;;;;;2.10;1.73;;;26.70;99.90;;;;;;4897154;29;20925;-83
2022/10/05 12:17:23;;;;;;;2.40;2.00;;;26.70;99.90;;;;;;4898750;29;20486;-83
2022/10/05 12:19:56;;;;;;;2.87;2.00;;;26.70;99.90;;;;;;4900404;29;21278;-82
2022/10/05 12:22:30;;;;;;;1.87;1.70;;;26.60;99.90;;;;;;4898681;29;20468;-82
2022/10/05 12:25:05;;;;;;;2.40;2.20;;;26.30;99.90;;;;;;4896843;29;20485;-82
2022/10/05 12:27:38;;;;;;;2.37;1.73;;;26.40;99.90;;;;;;4896136;29;20466;-82
2022/10/05 12:30:13;;;;;;;3.00;1.80;;;26.60;99.90;;;;;;4898934;29;20492;-83
2022/10/05 12:32:50;;;;;;;2.80;1.90;;;26.80;99.90;;;;;;4899468;29;20466;-83
2022/10/05 12:35:24;;;;;;;2.83;1.90;;;26.90;99.90;;;;;;4898650;29;20449;-83
2022/10/05 12:37:55;;;;;;;6.00;2.03;;;27.00;99.90;;;;;;4899354;29;20487;-83
2022/10/05 12:40:27;;;;;;;2.37;1.80;;;27.40;99.90;;;;;;4899447;29;20551;-83
2022/10/05 12:43:07;;;;;;;2.30;1.60;;;27.80;99.90;;;;;;4899941;29;20467;-83
2022/10/05 12:45:49;;;;;;;3.10;1.97;;;28.00;99.90;;;;;;4898662;29;20492;-83
2022/10/05 12:48:41;;;;;;;1.77;1.60;;;28.40;99.90;;;;;;4900498;29;20957;-83
2022/10/05 12:51:15;;;;;;;2.17;1.97;;;28.50;99.90;;;;;;4899631;29;20962;-83
2022/10/05 12:53:51;;;;;;;3.07;2.13;;;28.20;99.90;;;;;;4898901;29;20587;-78
2022/10/05 12:56:30;;;;;;;2.73;1.80;;;28.00;99.90;;;;;;4918566;29;20450;-77
2022/10/05 12:59:09;;;;;;;2.30;1.93;;;27.80;99.90;;;;;;4919035;29;20450;-76
2022/10/05 13:01:40;;;;;;;2.97;2.00;;;27.50;99.90;;;;;;4919195;29;20576;-77
2022/10/05 13:04:19;;;;;;;2.63;1.50;;;27.60;99.90;;;;;;4923877;29;20465;-83
2022/10/05 13:07:04;;;;;;;2.73;1.70;;;27.60;99.90;;;;;;4943099;29;20451;-82
2022/10/05 13:09:38;;;;;;;3.70;1.90;;;27.60;99.90;;;;;;4933471;29;20461;-83
2022/10/05 13:12:13;;;;;;;9.53;2.00;;;27.70;99.90;;;;;;4932877;29;20481;-78
2022/10/05 13:14:55;;;;;;;3.90;1.93;;;27.50;99.90;;;;;;4933895;29;20442;-82
2022/10/05 13:17:27;;;;;;;2.90;2.17;;;27.40;99.90;;;;;;4933817;29;20561;-84
2022/10/05 13:19:57;;;;;;;3.37;2.30;;;27.10;99.90;;;;;;4932151;29;20473;-85
2022/10/05 13:22:31;;;;;;;2.00;1.80;;;27.00;99.90;;;;;;4931932;29;20573;-85
2022/10/05 13:25:18;;;;;;;10.47;2.60;;;27.10;99.90;;;;;;4933617;29;20916;-85
2022/10/05 13:27:51;;;;;;;2.20;2.00;;;27.10;99.90;;;;;;4932469;29;20454;-68
2022/10/05 13:30:21;;;;;;;3.37;2.10;;;27.30;99.90;;;;;;4928353;29;20517;-72
2022/10/05 13:32:56;;;;;;;2.30;1.90;;;27.50;99.90;;;;;;4928717;29;20462;-72
2022/10/05 13:35:42;;;;;;;4.23;1.90;;;27.70;99.90;;;;;;4928366;29;20449;-72
2022/10/05 13:38:22;;;;;;;4.43;2.20;;;27.70;99.90;;;;;;4928735;29;20469;-69
2022/10/05 13:40:56;;;;;;;6.63;2.30;;;27.80;99.90;;;;;;4929056;29;20474;-70
2022/10/05 13:43:32;;;;;;;3.87;2.30;;;28.00;99.90;;;;;;4928573;29;20450;-69
2022/10/05 13:46:06;;;;;;;3.13;2.10;;;28.00;99.90;;;;;;4927667;29;20461;-69
2022/10/05 13:48:52;;;;;;;2.43;1.70;;;27.90;99.90;;;;;;4928479;29;20469;-69
2022/10/05 13:51:23;;;;;;;3.80;1.93;;;27.80;99.90;;;;;;4928460;29;20520;-69
2022/10/05 13:53:58;;;;;;;2.67;2.00;;;27.80;99.90;;;;;;4928571;29;20469;-68
2022/10/05 13:56:29;;;;;;;7.03;1.93;;;27.80;99.90;;;;;;4927871;29;20458;-72
2022/10/05 13:59:07;;;;;;;2.60;1.90;;;27.70;99.90;;;;;;4928209;29;20466;-72
2022/10/05 14:01:41;;;;;;;1.73;1.63;;;27.60;99.90;;;;;;4928106;29;20486;-72
2022/10/05 14:04:16;;;;;;;3.43;2.10;;;27.60;99.90;;;;;;4910742;29;20447;-73
2022/10/05 14:06:44;;;;;;;3.40;2.20;;;27.50;99.90;;;;;;4909406;29;20969;-73
2022/10/05 14:09:26;;;;;;;3.73;2.23;;;27.40;99.90;;;;;;4909433;29;20474;-72
2022/10/05 14:11:57;;;;;;;3.80;2.00;;;27.40;99.90;;;;;;4909123;29;20507;-69
2022/10/05 14:14:27;;;;;;;3.10;2.03;;;27.50;99.90;;;;;;4908673;29;20471;-70
2022/10/05 14:16:57;;;;;;;3.50;2.10;;;27.50;99.90;;;;;;4909279;29;21193;-69
2022/10/05 14:19:26;;;;;;;2.90;2.00;;;27.60;99.90;;;;;;4909259;29;20497;-68
2022/10/05 14:21:59;;;;;;;5.50;2.23;;;27.50;99.90;;;;;;4909445;29;20878;-73
2022/10/05 14:24:29;;;;;;;7.77;2.40;;;27.50;99.90;;;;;;4908201;29;20475;-70
2022/10/05 14:26:58;;;;;;;2.90;2.30;;;27.50;99.90;;;;;;4909738;29;20452;-70
2022/10/05 14:29:26;;;;;;;3.67;2.30;;;27.50;99.90;;;;;;4909085;29;20459;-71
2022/10/05 14:31:59;;;;;;;3.50;2.50;;;27.30;99.90;;;;;;4908935;29;20498;-71
2022/10/05 14:34:33;;;;;;;2.20;2.00;;;27.40;99.90;;;;;;4908426;29;20956;-71
2022/10/05 14:37:06;;;;;;;2.53;2.33;;;27.50;99.90;;;;;;4908553;29;21392;-71
2022/10/05 14:39:34;;;;;;;2.60;2.40;;;27.60;99.90;;;;;;4909284;29;20476;-71
2022/10/05 14:42:14;;;;;;;4.00;2.50;;;27.70;99.90;;;;;;4908731;29;20476;-71
2022/10/05 14:44:41;;;;;;;3.00;1.90;;;27.80;99.90;;;;;;4908343;29;20466;-71
2022/10/05 14:47:33;;;;;;;2.87;1.93;;;27.90;99.90;;;;;;4908825;29;20494;-71
2022/10/05 14:50:14;;;;;;;4.80;2.30;;;27.90;99.90;;;;;;4899078;29;20530;-71
2022/10/05 14:52:46;;;;;;;6.73;2.23;;;28.00;99.90;;;;;;4908029;29;20475;-71
2022/10/05 14:55:41;;;;;;;3.50;2.10;;;28.00;99.90;;;;;;4907409;29;20645;-71
2022/10/05 14:58:37;;;;;;;3.80;2.13;;;28.10;99.90;;;;;;4909086;29;20475;-71
2022/10/05 15:01:13;;;;;;;6.83;2.17;;;28.10;99.90;;;;;;4908796;29;20491;-70
2022/10/05 15:03:47;;;;;;;3.90;2.20;;;28.00;99.90;;;;;;4908133;29;20498;-70
2022/10/05 15:06:21;;;;;;;2.80;2.27;;;28.10;99.90;;;;;;4907718;29;20466;-71
2022/10/05 15:09:05;;;;;;;3.73;2.20;;;28.10;99.90;;;;;;4908676;29;20442;-71
2022/10/05 15:11:41;;;;;;;4.13;2.03;;;28.10;99.90;;;;;;4912464;29;20502;-71
2022/10/05 15:14:15;;;;;;;3.50;2.23;;;28.30;99.90;;;;;;4911754;29;20466;-71
2022/10/05 15:16:42;;;;;;;5.30;2.30;;;28.30;99.90;;;;;;4921735;29;20455;-71
2022/10/05 15:19:19;;;;;;;3.50;2.33;;;28.30;99.90;;;;;;4920789;29;20459;-71
2022/10/05 15:22:02;;;;;;;3.83;2.10;;;28.30;99.90;;;;;;4920455;29;20488;-71
2022/10/05 15:24:35;;;;;;;4.70;2.00;;;28.40;99.90;;;;;;4921237;29;20824;-71
2022/10/05 15:27:05;;;;;;;4.10;2.37;;;28.30;99.90;;;;;;4921064;29;20451;-71
2022/10/05 15:29:49;;;;;;;3.33;1.70;;;28.20;99.90;;;;;;4928369;29;20523;-71
2022/10/05 15:32:28;;;;;;;2.47;2.10;;;28.20;99.90;;;;;;4930896;29;20501;-70
2022/10/05 15:35:26;;;;;;;3.30;2.27;;;28.10;99.90;;;;;;4930959;29;20466;-72
2022/10/05 15:37:56;;;;;;;4.03;2.30;;;28.00;99.90;;;;;;4892241;29;20463;-71
2022/10/05 15:40:32;;;;;;;4.20;2.30;;;28.00;99.90;;;;;;4918265;29;20925;-86
2022/10/05 15:43:04;;;;;;;7.10;2.40;;;28.00;99.90;;;;;;4915155;29;20470;-87
2022/10/05 15:45:33;;;;;;;5.80;2.40;;;28.00;99.90;;;;;;4914993;29;20451;-86
2022/10/05 15:48:04;;;;;;;6.50;2.20;;;28.20;99.90;;;;;;4912863;29;20452;-86
2022/10/05 15:50:43;;;;;;;3.13;2.10;;;28.10;99.90;;;;;;4912614;29;20579;-87
2022/10/05 15:53:16;;;;;;;3.70;2.10;;;28.00;99.90;;;;;;4912134;29;20455;-86
2022/10/05 15:55:49;;;;;;;5.47;2.13;;;27.90;99.90;;;;;;4912141;29;20447;-86
2022/10/05 15:58:38;;;;;;;6.27;3.07;;;27.70;99.90;;;;;;4912739;29;20467;-86
2022/10/05 16:01:10;;;;;;;4.47;2.30;;;27.60;99.90;;;;;;4912098;29;20475;-86
2022/10/05 16:03:46;;;;;;;4.60;2.43;;;27.50;99.90;;;;;;4913793;29;20453;-86
2022/10/05 16:09:34;;;;;;;7.30;2.40;;;27.20;99.90;;;;;;4913685;29;20499;-86
2022/10/05 16:12:13;;;;;;;5.13;2.20;;;26.80;99.90;;;;;;4913811;29;20510;-86
2022/10/05 16:14:53;;;;;;;6.17;2.70;;;26.50;99.90;;;;;;4913206;29;20447;-86
2022/10/05 16:17:49;;;;;;;8.40;2.70;;;26.20;99.90;;;;;;4913636;29;21294;-85
2022/10/05 16:20:29;;;;;;;7.97;2.43;;;25.90;99.90;;;;;;4911638;29;20945;-75
2022/10/05 16:23:04;;;;;;;4.50;3.10;;;25.60;99.90;;;;;;4911721;29;20455;-75
2022/10/05 16:25:43;;;;;;;238.90;155.97;;;25.40;99.90;;;;;;4911934;29;20447;-84
2022/10/05 16:28:21;;;;;;;72.40;50.30;;;25.20;99.90;;;;;;4913916;29;20443;-84
2022/10/05 16:30:58;;;;;;;10.03;7.90;;;25.00;99.90;;;;;;4913129;29;20483;-84
2022/10/05 16:33:39;;;;;;;44.72;32.97;;;24.80;99.90;;;;;;4916695;29;20458;-81
2022/10/05 16:36:18;;;;;;;159.60;137.40;;;24.60;99.90;;;;;;4922319;29;20225;-81
2022/10/05 16:38:54;;;;;;;174.27;155.83;;;24.60;99.90;;;;;;4920734;29;20459;-81
2022/10/05 16:41:27;;;;;;;319.70;289.03;;;24.40;99.90;;;;;;4917565;29;20481;-87
2022/10/05 16:44:01;;;;;;;184.57;165.93;;;24.20;99.90;;;;;;4914279;29;20452;-87
2022/10/05 16:46:36;;;;;;;50.87;45.67;;;24.00;99.90;;;;;;4913575;29;20920;-86
2022/10/05 16:49:12;;;;;;;31.90;25.83;;;23.80;99.90;;;;;;4913963;29;21177;-87
2022/10/05 16:51:49;;;;;;;201.27;162.97;;;23.60;99.90;;;;;;4913555;29;20502;-87
2022/10/05 16:54:21;;;;;;;36.73;28.63;;;23.40;99.90;;;;;;4913641;29;20905;-87
2022/10/05 16:56:52;;;;;;;20.53;17.37;;;23.30;99.90;;;;;;4913641;29;20451;-87
2022/10/05 17:00:02;;;;;;;29.37;23.10;;;23.10;99.90;;;;;;4913736;29;20465;-87
2022/10/05 17:02:44;;;;;;;143.80;129.43;;;22.90;99.90;;;;;;4913511;29;20925;-85
2022/10/05 17:05:30;;;;;;;137.30;123.00;;;22.80;99.90;;;;;;4913186;29;20463;-87
2022/10/05 17:08:16;;;;;;;51.40;46.10;;;22.60;99.90;;;;;;4914066;29;20462;-87
2022/10/05 17:11:04;;;;;;;56.40;50.40;;;22.40;99.90;;;;;;4913375;29;20503;-86
2022/10/05 17:13:58;;;;;;;435.27;372.40;;;22.30;99.90;;;;;;4913723;29;20443;-85
2022/10/05 17:16:36;;;;;;;285.67;228.20;;;22.20;99.90;;;;;;4913369;29;20558;-87
2022/10/05 17:19:31;;;;;;;234.83;166.93;;;22.00;99.90;;;;;;4913897;29;20420;-86
2022/10/05 17:22:00;;;;;;;31.93;23.97;;;21.90;99.90;;;;;;4904548;29;20495;-85
2022/10/05 17:24:41;;;;;;;18.73;15.13;;;21.80;99.90;;;;;;4914912;29;20459;-85
2022/10/05 17:27:27;;;;;;;20.57;12.63;;;21.70;99.90;;;;;;4911337;29;21056;-76
2022/10/05 17:30:15;;;;;;;9.20;5.67;;;21.60;99.90;;;;;;4909620;29;20950;-76
2022/10/05 17:32:56;;;;;;;12.70;9.13;;;21.50;99.90;;;;;;4908836;29;20503;-76
2022/10/05 17:35:41;;;;;;;12.17;9.00;;;21.30;99.90;;;;;;4909178;29;20501;-76
2022/10/05 17:38:20;;;;;;;16.80;10.50;;;21.20;99.90;;;;;;4909679;29;20461;-76
2022/10/05 17:41:17;;;;;;;15.03;10.30;;;21.10;99.90;;;;;;4909387;29;21029;-76
2022/10/05 17:44:23;;;;;;;17.20;10.80;;;21.00;99.90;;;;;;4908075;29;20478;-76
2022/10/05 17:46:51;;;;;;;15.53;9.13;;;20.90;99.90;;;;;;4909301;29;20470;-76
2022/10/05 17:49:35;;;;;;;11.37;8.30;;;20.90;99.90;;;;;;4908893;29;20466;-76
2022/10/05 17:55:37;;;;;;;10.53;7.30;;;20.70;99.90;;;;;;4907429;29;20443;-77
2022/10/05 17:58:38;;;;;;;9.57;6.50;;;20.60;99.90;;;;;;4908682;29;20538;-77
2022/10/05 18:01:15;;;;;;;7.33;6.37;;;20.40;99.90;;;;;;4907754;29;20504;-77
2022/10/05 18:03:43;;;;;;;9.00;6.00;;;20.40;99.90;;;;;;4908620;29;20542;-76